createdAt,value
2018-08-22T00:00:24.252Z,2.60
2018-08-22T00:02:52.515Z,2.23
2018-08-22T00:05:20.824Z,4.30
2018-08-22T00:07:49.022Z,2.57
2018-08-22T00:10:17.336Z,3.40
2018-08-22T00:12:45.626Z,2.50
2018-08-22T00:15:13.945Z,5.00
2018-08-22T00:17:42.124Z,3.67
2018-08-22T00:20:10.443Z,2.10
2018-08-22T00:22:38.628Z,4.30
2018-08-22T00:25:06.859Z,2.57
2018-08-22T00:27:35.070Z,2.97
2018-08-22T00:30:03.442Z,2.50
2018-08-22T00:32:31.635Z,3.40
2018-08-22T00:34:59.824Z,2.10
2018-08-22T00:37:28.017Z,2.10
2018-08-22T00:39:56.203Z,3.27
2018-08-22T00:42:24.437Z,3.40
2018-08-22T00:44:52.612Z,2.70
2018-08-22T00:47:20.808Z,2.10
2018-08-22T00:49:49.115Z,4.67
2018-08-22T00:52:17.374Z,2.70
2018-08-22T00:54:45.935Z,2.77
2018-08-22T00:57:14.162Z,5.60
2018-08-22T00:59:42.357Z,3.03
2018-08-22T01:02:10.584Z,4.40
2018-08-22T01:04:38.872Z,2.30
2018-08-22T01:07:07.250Z,4.97
2018-08-22T01:09:35.483Z,6.83
2018-08-22T01:12:03.713Z,6.10
2018-08-22T01:14:31.910Z,4.03
2018-08-22T01:17:00.110Z,3.20
2018-08-22T01:19:28.303Z,3.53
2018-08-22T01:21:56.558Z,2.67
2018-08-22T01:24:24.776Z,3.93
2018-08-22T01:26:53.012Z,2.33
2018-08-22T01:29:21.237Z,4.60
2018-08-22T01:31:49.479Z,5.10
2018-08-22T01:34:17.677Z,3.10
2018-08-22T01:36:45.908Z,3.13
2018-08-22T01:39:14.134Z,3.70
2018-08-22T01:41:42.327Z,6.70
2018-08-22T01:44:10.691Z,4.30
2018-08-22T01:46:38.940Z,4.57
2018-08-22T01:49:07.173Z,2.47
2018-08-22T01:51:35.365Z,4.27
2018-08-22T01:54:03.606Z,5.07
2018-08-22T01:56:31.982Z,2.33
2018-08-22T01:59:00.176Z,2.60
2018-08-22T02:01:28.430Z,5.10
2018-08-22T02:03:56.676Z,3.53
2018-08-22T02:06:24.975Z,2.77
2018-08-22T02:08:53.228Z,4.57
2018-08-22T02:11:21.430Z,3.73
2018-08-22T02:13:49.670Z,3.83
2018-08-22T02:16:18.006Z,3.37
2018-08-22T02:18:46.234Z,4.73
2018-08-22T02:21:14.448Z,6.73
2018-08-22T02:23:42.675Z,6.07
2018-08-22T02:26:10.897Z,3.77
2018-08-22T02:28:39.149Z,3.83
2018-08-22T02:31:07.448Z,5.73
2018-08-22T02:33:35.660Z,3.83
2018-08-22T02:36:03.871Z,4.17
2018-08-22T02:38:32.180Z,6.77
2018-08-22T02:41:00.388Z,3.23
2018-08-22T02:43:28.578Z,4.73
2018-08-22T02:45:56.819Z,5.40
2018-08-22T02:48:25.044Z,4.40
2018-08-22T02:50:53.212Z,4.10
2018-08-22T02:53:21.452Z,5.30
2018-08-22T02:55:49.985Z,5.90
2018-08-22T02:58:18.160Z,4.77
2018-08-22T03:00:46.436Z,2.83
2018-08-22T03:03:14.660Z,4.00
2018-08-22T03:05:42.870Z,4.83
2018-08-22T03:08:11.070Z,4.37
2018-08-22T03:10:39.322Z,4.27
2018-08-22T03:13:07.524Z,3.73
2018-08-22T03:15:35.789Z,3.33
2018-08-22T03:18:03.996Z,5.93
2018-08-22T03:20:32.179Z,3.60
2018-08-22T03:23:00.436Z,3.50
2018-08-22T03:25:28.695Z,3.47
2018-08-22T03:27:56.915Z,4.23
2018-08-22T03:30:25.156Z,6.43
2018-08-22T03:32:53.408Z,5.50
2018-08-22T03:35:21.686Z,4.13
2018-08-22T03:37:50.088Z,4.10
2018-08-22T03:40:18.960Z,3.53
2018-08-22T03:42:47.180Z,4.40
2018-08-22T03:45:15.418Z,3.53
2018-08-22T03:47:43.612Z,4.00
2018-08-22T03:50:11.808Z,5.27
2018-08-22T03:52:40.833Z,3.90
2018-08-22T03:55:09.037Z,4.37
2018-08-22T03:57:37.454Z,3.97
2018-08-22T04:00:05.733Z,5.40
2018-08-22T04:02:34.072Z,3.93
2018-08-22T04:05:02.356Z,4.17
2018-08-22T04:07:30.640Z,3.60
2018-08-22T04:09:58.897Z,3.80
2018-08-22T04:12:27.917Z,5.03
2018-08-22T04:14:56.235Z,6.17
2018-08-22T04:17:40.648Z,4.23
2018-08-22T04:20:09.372Z,4.73
2018-08-22T04:22:40.272Z,4.17
2018-08-22T04:25:09.093Z,6.37
2018-08-22T04:27:37.319Z,3.93
2018-08-22T04:30:05.672Z,4.17
2018-08-22T04:32:33.938Z,5.57
2018-08-22T04:35:02.168Z,5.40
2018-08-22T04:37:30.438Z,5.00
2018-08-22T04:39:58.727Z,6.00
2018-08-22T04:42:26.909Z,5.30
2018-08-22T04:44:55.155Z,5.90
2018-08-22T04:47:23.390Z,4.77
2018-08-22T04:49:51.608Z,6.70
2018-08-22T04:52:19.808Z,4.77
2018-08-22T04:54:48.059Z,7.27
2018-08-22T04:57:16.243Z,5.13
2018-08-22T04:59:44.524Z,4.33
2018-08-22T05:02:12.809Z,4.50
2018-08-22T05:04:41.092Z,6.43
2018-08-22T05:07:09.315Z,4.43
2018-08-22T05:09:37.525Z,5.47
2018-08-22T05:12:05.732Z,4.83
2018-08-22T05:14:34.015Z,5.53
2018-08-22T05:17:02.268Z,4.63
2018-08-22T05:19:30.496Z,4.33
2018-08-22T05:21:58.715Z,4.30
2018-08-22T05:24:27.591Z,3.83
2018-08-22T05:26:55.780Z,4.30
2018-08-22T05:29:24.160Z,3.90
2018-08-22T05:31:52.418Z,6.03
2018-08-22T05:34:20.600Z,3.63
2018-08-22T05:36:48.986Z,4.27
2018-08-22T05:39:17.248Z,5.53
2018-08-22T05:41:45.447Z,4.93
2018-08-22T05:44:13.631Z,6.67
2018-08-22T05:46:41.852Z,5.87
2018-08-22T05:49:10.123Z,4.93
2018-08-22T05:51:38.335Z,5.07
2018-08-22T05:54:06.717Z,6.37
2018-08-22T05:56:34.887Z,4.50
2018-08-22T05:59:03.084Z,4.87
2018-08-22T06:01:31.469Z,5.27
2018-08-22T06:03:59.736Z,7.67
2018-08-22T06:06:28.037Z,5.20
2018-08-22T06:08:56.243Z,5.40
2018-08-22T06:11:24.516Z,5.23
2018-08-22T06:13:52.733Z,6.07
2018-08-22T06:16:20.921Z,5.10
2018-08-22T06:18:49.229Z,5.13
2018-08-22T06:21:17.450Z,7.30
2018-08-22T06:23:45.617Z,7.60
2018-08-22T06:26:13.820Z,7.80
2018-08-22T06:28:42.071Z,10.27
2018-08-22T06:31:10.257Z,8.33
2018-08-22T06:33:38.508Z,7.23
2018-08-22T06:36:06.748Z,5.33
2018-08-22T06:38:34.948Z,6.73
2018-08-22T06:41:03.151Z,5.93
2018-08-22T06:43:31.360Z,6.60
2018-08-22T06:46:00.539Z,6.00
2018-08-22T06:48:28.784Z,9.70
2018-08-22T06:50:56.976Z,6.40
2018-08-22T06:53:25.328Z,9.00
2018-08-22T06:55:53.547Z,10.87
2018-08-22T06:58:21.789Z,8.77
2018-08-22T07:00:50.090Z,6.80
2018-08-22T07:03:18.400Z,8.23
2018-08-22T07:05:46.659Z,8.57
2018-08-22T07:08:15.013Z,6.23
2018-08-22T07:10:43.190Z,9.73
2018-08-22T07:13:11.452Z,6.30
2018-08-22T07:15:39.700Z,7.23
2018-08-22T07:18:07.900Z,5.57
2018-08-22T07:20:36.096Z,7.07
2018-08-22T07:23:04.304Z,6.27
2018-08-22T07:25:32.566Z,8.33
2018-08-22T07:28:00.976Z,6.53
2018-08-22T07:30:29.205Z,6.13
2018-08-22T07:32:57.460Z,5.80
2018-08-22T07:35:25.669Z,5.23
2018-08-22T07:37:53.933Z,6.50
2018-08-22T07:40:22.128Z,5.60
2018-08-22T07:42:50.557Z,7.23
2018-08-22T07:45:18.866Z,7.07
2018-08-22T07:47:47.056Z,7.40
2018-08-22T07:50:15.380Z,4.43
2018-08-22T07:52:49.105Z,4.23
2018-08-22T07:55:17.308Z,4.77
2018-08-22T07:57:45.653Z,6.30
2018-08-22T08:00:13.912Z,6.23
2018-08-22T08:02:42.112Z,5.80
2018-08-22T08:05:10.408Z,5.07
2018-08-22T08:07:38.660Z,4.53
2018-08-22T08:10:06.905Z,4.80
2018-08-22T08:12:39.896Z,6.70
2018-08-22T08:15:08.642Z,4.43
2018-08-22T08:17:36.831Z,6.03
2018-08-22T08:20:05.428Z,4.70
2018-08-22T08:22:33.673Z,3.83
2018-08-22T08:25:01.881Z,5.13
2018-08-22T08:27:30.174Z,6.20
2018-08-22T08:29:58.359Z,5.07
2018-08-22T08:32:26.628Z,4.80
2018-08-22T08:34:54.905Z,4.60
2018-08-22T08:37:23.127Z,5.90
2018-08-22T08:39:51.404Z,5.90
2018-08-22T08:42:19.605Z,5.47
2018-08-22T08:44:47.843Z,7.60
2018-08-22T08:47:16.085Z,6.60
2018-08-22T08:49:44.357Z,4.87
2018-08-22T08:52:12.589Z,5.17
2018-08-22T08:54:40.859Z,4.83
2018-08-22T08:57:09.085Z,5.30
2018-08-22T08:59:37.235Z,11.67
2018-08-22T09:02:05.468Z,8.53
2018-08-22T09:04:33.668Z,7.03
2018-08-22T09:07:02.190Z,5.63
2018-08-22T09:09:30.383Z,6.27
2018-08-22T09:11:59.688Z,7.40
2018-08-22T09:14:28.205Z,6.53
2018-08-22T09:16:57.044Z,6.37
2018-08-22T09:19:25.438Z,6.27
2018-08-22T09:21:53.657Z,7.93
2018-08-22T09:24:21.883Z,8.57
2018-08-22T09:26:50.108Z,8.90
2018-08-22T09:29:18.304Z,7.07
2018-08-22T09:31:46.524Z,9.40
2018-08-22T09:34:14.773Z,10.17
2018-08-22T09:36:43.066Z,9.23
2018-08-22T09:39:12.561Z,11.63
2018-08-22T09:41:41.102Z,7.83
2018-08-22T09:44:09.378Z,9.97
2018-08-22T09:46:38.672Z,7.80
2018-08-22T09:49:06.863Z,8.57
2018-08-22T09:51:35.074Z,9.00
2018-08-22T09:54:03.503Z,10.50
2018-08-22T09:56:31.723Z,7.08
2018-08-22T09:59:00.085Z,8.50
2018-08-22T10:01:33.604Z,8.03
2018-08-22T10:04:02.356Z,9.75
2018-08-22T10:06:33.969Z,7.25
2018-08-22T10:09:03.331Z,6.93
2018-08-22T10:11:31.593Z,8.33
2018-08-22T10:13:59.817Z,6.53
2018-08-22T10:16:28.903Z,8.00
2018-08-22T10:18:57.280Z,6.87
2018-08-22T10:21:26.175Z,8.98
2018-08-22T10:23:54.432Z,6.55
2018-08-22T10:26:22.788Z,7.67
2018-08-22T10:28:51.140Z,9.35
2018-08-22T10:31:19.353Z,6.47
2018-08-22T10:33:47.630Z,7.22
2018-08-22T10:36:15.824Z,7.58
2018-08-22T10:38:44.092Z,6.42
2018-08-22T10:41:12.300Z,6.03
2018-08-22T10:43:40.505Z,7.45
2018-08-22T10:46:09.485Z,9.75
2018-08-22T10:48:37.699Z,7.80
2018-08-22T10:51:06.416Z,8.23
2018-08-22T10:53:34.660Z,6.20
2018-08-22T10:56:02.852Z,8.03
2018-08-22T10:58:31.198Z,7.47
2018-08-22T11:01:00.020Z,7.53
2018-08-22T11:03:28.316Z,7.90
2018-08-22T11:05:56.539Z,7.12
2018-08-22T11:08:25.049Z,6.53
2018-08-22T11:10:53.310Z,9.23
2018-08-22T11:13:21.574Z,7.55
2018-08-22T11:15:49.919Z,7.53
2018-08-22T11:18:18.056Z,7.97
2018-08-22T11:20:52.305Z,6.28
2018-08-22T11:23:32.342Z,7.12
2018-08-22T11:26:12.318Z,8.50
2018-08-22T11:28:51.940Z,7.40
2018-08-22T11:31:31.549Z,9.88
2018-08-22T11:34:10.967Z,9.38
2018-08-22T11:36:38.151Z,7.83
2018-08-22T11:39:07.271Z,12.50
2018-08-22T11:41:35.472Z,11.00
2018-08-22T11:44:03.696Z,7.95
2018-08-22T11:46:31.969Z,8.30
2018-08-22T11:49:00.172Z,7.95
2018-08-22T11:51:28.405Z,13.13
2018-08-22T11:53:56.614Z,9.23
2018-08-22T11:56:24.891Z,12.58
2018-08-22T11:58:53.168Z,8.73
2018-08-22T12:01:21.387Z,7.97
2018-08-22T12:03:49.867Z,9.85
2018-08-22T12:06:18.096Z,8.13
2018-08-22T12:08:46.304Z,9.10
2018-08-22T12:11:14.545Z,11.80
2018-08-22T12:13:42.736Z,10.80
2018-08-22T12:16:11.020Z,11.38
2018-08-22T12:18:39.168Z,9.65
2018-08-22T12:21:07.448Z,8.35
2018-08-22T12:23:35.712Z,8.15
2018-08-22T12:26:04.001Z,8.03
2018-08-22T12:28:32.268Z,7.35
2018-08-22T12:31:00.490Z,7.85
2018-08-22T12:33:28.636Z,11.05
2018-08-22T12:35:56.922Z,8.60
2018-08-22T12:38:25.302Z,8.85
2018-08-22T12:40:53.552Z,8.23
2018-08-22T12:43:21.775Z,7.90
2018-08-22T12:45:50.072Z,9.55
2018-08-22T12:48:18.296Z,8.20
2018-08-22T12:50:46.584Z,7.72
2018-08-22T12:53:14.832Z,10.63
2018-08-22T12:55:43.089Z,9.53
2018-08-22T12:58:11.373Z,7.45
2018-08-22T13:00:39.664Z,7.20
2018-08-22T13:03:07.891Z,7.62
2018-08-22T13:05:36.235Z,11.33
2018-08-22T13:08:04.503Z,9.00
2018-08-22T13:10:32.704Z,7.70
2018-08-22T13:13:00.956Z,8.90
2018-08-22T13:15:29.224Z,7.53
2018-08-22T13:17:57.606Z,7.95
2018-08-22T13:20:25.884Z,8.48
2018-08-22T13:22:54.159Z,8.08
2018-08-22T13:25:22.424Z,9.08
2018-08-22T13:27:50.736Z,6.67
2018-08-22T13:30:19.025Z,7.30
2018-08-22T13:32:47.407Z,7.12
2018-08-22T13:35:15.540Z,6.62
2018-08-22T13:37:43.730Z,6.95
2018-08-22T13:40:12.111Z,6.53
2018-08-22T13:42:40.476Z,7.70
2018-08-22T13:45:08.820Z,7.53
2018-08-22T13:47:37.029Z,8.50
2018-08-22T13:50:05.336Z,8.83
2018-08-22T13:52:33.893Z,7.00
2018-08-22T13:55:02.072Z,8.40
2018-08-22T13:57:30.351Z,6.22
2018-08-22T13:59:58.600Z,5.65
2018-08-22T14:02:26.849Z,7.45
2018-08-22T14:04:55.070Z,6.90
2018-08-22T14:07:23.256Z,6.45
2018-08-22T14:09:51.527Z,6.33
2018-08-22T14:12:19.784Z,6.17
2018-08-22T14:14:47.977Z,5.97
2018-08-22T14:17:16.165Z,6.85
2018-08-22T14:19:44.453Z,7.62
2018-08-22T14:22:12.624Z,6.10
2018-08-22T14:24:40.859Z,6.33
2018-08-22T14:27:09.060Z,6.75
2018-08-22T14:29:37.264Z,5.33
2018-08-22T14:32:05.960Z,8.50
2018-08-22T14:34:34.183Z,6.78
2018-08-22T14:37:02.485Z,6.83
2018-08-22T14:39:30.677Z,5.30
2018-08-22T14:41:58.924Z,6.00
2018-08-22T14:44:27.220Z,6.85
2018-08-22T14:46:55.458Z,7.67
2018-08-22T14:49:23.653Z,6.65
2018-08-22T14:51:51.855Z,6.00
2018-08-22T14:54:20.105Z,7.12
2018-08-22T14:56:48.332Z,7.17
2018-08-22T14:59:16.532Z,6.00
2018-08-22T15:01:44.798Z,7.17
2018-08-22T15:04:13.112Z,6.90
2018-08-22T15:06:41.307Z,7.45
2018-08-22T15:09:17.395Z,6.53
2018-08-22T15:11:45.625Z,6.25
2018-08-22T15:14:13.800Z,7.95
2018-08-22T15:16:42.109Z,6.53
2018-08-22T15:19:10.386Z,6.40
2018-08-22T15:21:38.660Z,6.92
2018-08-22T15:24:06.904Z,7.62
2018-08-22T15:26:35.140Z,6.55
2018-08-22T15:29:03.332Z,8.65
2018-08-22T15:31:31.531Z,9.00
2018-08-22T15:33:59.824Z,7.45
2018-08-22T15:36:28.089Z,9.00
2018-08-22T15:38:56.242Z,7.90
2018-08-22T15:41:24.491Z,8.33
2018-08-22T15:43:52.716Z,10.30
2018-08-22T15:46:20.985Z,7.05
2018-08-22T15:48:49.280Z,9.15
2018-08-22T15:51:17.516Z,10.63
2018-08-22T15:53:56.016Z,9.75
2018-08-22T15:56:24.236Z,7.62
2018-08-22T15:58:52.553Z,7.78
2018-08-22T16:01:20.789Z,11.10
2018-08-22T16:03:49.050Z,9.10
2018-08-22T16:06:17.251Z,9.40
2018-08-22T16:08:45.445Z,9.78
2018-08-22T16:11:13.771Z,8.35
2018-08-22T16:13:42.065Z,9.13
2018-08-22T16:16:10.305Z,8.08
2018-08-22T16:18:38.500Z,11.70
2018-08-22T16:21:07.024Z,8.63
2018-08-22T16:23:35.709Z,10.28
2018-08-22T16:26:04.892Z,11.12
2018-08-22T16:28:45.508Z,10.88
2018-08-22T16:31:13.861Z,8.80
2018-08-22T16:33:41.897Z,9.40
2018-08-22T16:36:14.332Z,10.82
2018-08-22T16:38:42.556Z,8.75
2018-08-22T16:41:11.040Z,9.08
2018-08-22T16:43:41.443Z,9.60
2018-08-22T16:46:12.424Z,8.88
2018-08-22T16:48:41.547Z,9.30
2018-08-22T16:51:09.872Z,10.82
2018-08-22T16:53:38.170Z,9.18
2018-08-22T16:56:06.556Z,9.28
2018-08-22T16:58:34.970Z,9.45
2018-08-22T17:01:03.135Z,9.63
2018-08-22T17:03:31.325Z,9.78
2018-08-22T17:06:04.821Z,10.03
2018-08-22T17:08:33.061Z,8.48
2018-08-22T17:11:05.237Z,9.53
2018-08-22T17:13:51.520Z,10.75
2018-08-22T17:16:20.149Z,8.80
2018-08-22T17:18:48.476Z,10.10
2018-08-22T17:21:19.107Z,9.35
2018-08-22T17:23:47.814Z,11.28
2018-08-22T17:26:19.992Z,11.60
2018-08-22T17:28:52.714Z,12.53
2018-08-22T17:31:22.028Z,9.13
2018-08-22T17:33:56.832Z,9.60
2018-08-22T17:36:25.156Z,13.20
2018-08-22T17:38:54.700Z,11.10
2018-08-22T17:41:24.315Z,11.37
2018-08-22T17:44:00.687Z,11.97
2018-08-22T17:46:31.320Z,10.43
2018-08-22T17:48:59.563Z,11.87
2018-08-22T17:51:27.883Z,12.73
2018-08-22T17:53:56.157Z,12.07
2018-08-22T17:56:25.541Z,10.70
2018-08-22T17:58:54.732Z,10.30
2018-08-22T18:01:23.387Z,11.33
2018-08-22T18:03:53.849Z,11.00
2018-08-22T18:06:22.096Z,11.77
2018-08-22T18:08:50.364Z,12.00
2018-08-22T18:11:18.577Z,10.00
2018-08-22T18:13:46.826Z,10.40
2018-08-22T18:16:15.025Z,12.23
2018-08-22T18:18:43.225Z,10.93
2018-08-22T18:21:11.464Z,11.20
2018-08-22T18:23:55.920Z,13.00
2018-08-22T18:26:24.147Z,12.67
2018-08-22T18:28:52.395Z,13.27
2018-08-22T18:31:20.640Z,14.10
2018-08-22T18:33:57.657Z,14.60
2018-08-22T18:36:26.916Z,14.87
2018-08-22T18:39:04.432Z,14.87
2018-08-22T18:41:32.764Z,15.33
2018-08-22T18:44:01.321Z,15.53
2018-08-22T18:46:29.518Z,14.37
2018-08-22T18:48:57.752Z,16.53
2018-08-22T18:51:26.024Z,15.03
2018-08-22T18:53:54.323Z,14.40
2018-08-22T18:56:22.727Z,14.40
2018-08-22T18:58:51.415Z,14.87
2018-08-22T19:01:19.773Z,14.87
2018-08-22T19:03:47.968Z,15.13
2018-08-22T19:06:16.175Z,18.07
2018-08-22T19:08:44.420Z,18.90
2018-08-22T19:11:12.725Z,15.37
2018-08-22T19:13:40.880Z,18.87
2018-08-22T19:16:10.346Z,18.30
2018-08-22T19:18:38.949Z,22.53
2018-08-22T19:21:08.586Z,20.37
2018-08-22T19:23:36.850Z,20.67
2018-08-22T19:26:06.012Z,22.87
2018-08-22T19:28:49.483Z,22.50
2018-08-22T19:31:17.714Z,18.97
2018-08-22T19:33:45.948Z,21.30
2018-08-22T19:36:14.152Z,19.83
2018-08-22T19:38:42.842Z,25.77
2018-08-22T19:41:22.388Z,20.77
2018-08-22T19:43:50.647Z,24.00
2018-08-22T19:46:19.703Z,20.47
2018-08-22T19:48:47.934Z,21.10
2018-08-22T19:51:16.176Z,21.90
2018-08-22T19:53:56.438Z,19.47
2018-08-22T19:56:25.158Z,20.60
2018-08-22T19:58:53.259Z,23.63
2018-08-22T20:01:21.541Z,19.10
2018-08-22T20:03:52.721Z,20.97
2018-08-22T20:06:21.419Z,18.07
2018-08-22T20:08:52.709Z,20.33
2018-08-22T20:11:21.100Z,22.60
2018-08-22T20:13:52.745Z,19.07
2018-08-22T20:16:21.972Z,21.33
2018-08-22T20:18:55.849Z,18.43
2018-08-22T20:21:31.941Z,22.67
2018-08-22T20:24:00.936Z,21.20
2018-08-22T20:26:29.561Z,24.10
2018-08-22T20:28:59.036Z,21.80
2018-08-22T20:31:27.303Z,22.20
2018-08-22T20:34:08.632Z,21.43
2018-08-22T20:36:36.838Z,21.30
2018-08-22T20:39:08.697Z,24.03
2018-08-22T20:41:37.373Z,20.47
2018-08-22T20:44:07.669Z,22.57
2018-08-22T20:46:35.888Z,24.23
2018-08-22T20:49:04.131Z,24.70
2018-08-22T20:51:32.825Z,24.30
2018-08-22T20:54:07.032Z,23.40
2018-08-22T20:56:35.813Z,23.17
2018-08-22T20:59:04.017Z,26.33
2018-08-22T21:01:32.275Z,24.00
2018-08-22T21:04:01.570Z,23.73
2018-08-22T21:06:29.847Z,26.37
2018-08-22T21:08:59.115Z,25.70
2018-08-22T21:11:27.332Z,25.00
2018-08-22T21:13:55.618Z,22.47
2018-08-22T21:16:23.849Z,24.80
2018-08-22T21:18:52.225Z,24.40
2018-08-22T21:21:23.400Z,23.00
2018-08-22T21:23:51.660Z,23.67
2018-08-22T21:26:34.198Z,24.13
2018-08-22T21:29:02.448Z,24.33
2018-08-22T21:31:30.726Z,26.20
2018-08-22T21:34:01.935Z,25.83
2018-08-22T21:36:30.154Z,23.77
2018-08-22T21:38:58.371Z,24.90
2018-08-22T21:41:26.639Z,24.40
2018-08-22T21:43:54.903Z,26.03
2018-08-22T21:46:23.139Z,24.53
2018-08-22T21:48:51.365Z,27.87
2018-08-22T21:51:19.636Z,27.07
2018-08-22T21:53:47.901Z,24.60
2018-08-22T21:56:16.576Z,26.07
2018-08-22T21:58:44.780Z,27.30
2018-08-22T22:01:13.032Z,24.57
2018-08-22T22:03:41.447Z,29.80
2018-08-22T22:06:09.691Z,29.27
2018-08-22T22:08:43.242Z,26.53
2018-08-22T22:11:11.466Z,28.87
2018-08-22T22:13:39.659Z,28.00
2018-08-22T22:16:08.018Z,31.07
2018-08-22T22:18:36.288Z,26.80
2018-08-22T22:21:12.375Z,27.07
2018-08-22T22:23:45.568Z,28.30
2018-08-22T22:26:14.749Z,29.47
2018-08-22T22:28:43.012Z,30.17
2018-08-22T22:31:13.277Z,29.90
2018-08-22T22:34:03.292Z,28.03
2018-08-22T22:36:32.835Z,29.00
2018-08-22T22:39:01.039Z,29.00
2018-08-22T22:41:30.594Z,28.53
2018-08-22T22:43:58.845Z,26.53
2018-08-22T22:46:27.052Z,25.40
2018-08-22T22:48:55.269Z,25.60
2018-08-22T22:51:23.523Z,26.77
2018-08-22T22:53:51.780Z,27.80
2018-08-22T22:56:20.012Z,25.40
2018-08-22T22:58:48.254Z,26.37
2018-08-22T23:01:16.515Z,24.43
2018-08-22T23:03:44.804Z,29.00
2018-08-22T23:06:13.190Z,26.47
2018-08-22T23:08:41.419Z,26.67
2018-08-22T23:11:09.817Z,27.33
2018-08-22T23:13:38.020Z,29.37
2018-08-22T23:16:06.277Z,29.50
2018-08-22T23:18:34.542Z,31.93
2018-08-22T23:21:02.743Z,29.63
2018-08-22T23:23:37.202Z,29.90
2018-08-22T23:26:18.580Z,30.23
2018-08-22T23:28:46.810Z,32.53
2018-08-22T23:31:16.567Z,30.97
2018-08-22T23:33:44.799Z,29.73
2018-08-22T23:36:13.040Z,30.27
2018-08-22T23:38:41.252Z,30.93
2018-08-22T23:41:09.465Z,33.20
2018-08-22T23:43:43.921Z,31.97
2018-08-22T23:46:13.088Z,31.87
2018-08-22T23:48:41.567Z,31.97
2018-08-22T23:51:11.088Z,31.10
2018-08-22T23:53:44.746Z,34.03
2018-08-22T23:56:21.840Z,31.70
2018-08-22T23:58:50.656Z,37.70
